Aviation Digital Data Service (ADDS)

Output produced by METARs form (1513 UTC 26 September 2021)
found at http://www.aviationweather.gov/metar/data/
 
METAR text: KANK 261455Z AUTO 34008KT 10SM CLR 13/M04 A3037 RMK AO1 T01341036
Conditions at: KANK (SALIDA , CO, US) observed 1455 UTC 26 September 2021
Temperature: 13.4°C (56°F)
Dewpoint: -3.6°C (26°F) [RH = 30%]
Pressure (altimeter): 30.37 inches Hg (1028.5 mb)
Winds: from the NNW (340 degrees) at 9 MPH (8 knots; 4.1 m/s)
Visibility: 10 or more miles (16+ km)
Ceiling: at least 12,000 feet AGL
Clouds: sky clear below 12,000 feet AGL
Weather: automated observation with no human augmentation;
there may or may not be significant weather present at this time

METAR text: KANK 261435Z AUTO 34007KT 10SM CLR 12/M04 A3037 RMK AO1 T01231036
Conditions at: KANK (SALIDA , CO, US) observed 1435 UTC 26 September 2021
Temperature: 12.3°C (54°F)
Dewpoint: -3.6°C (26°F) [RH = 33%]
Pressure (altimeter): 30.37 inches Hg (1028.5 mb)
Winds: from the NNW (340 degrees) at 8 MPH (7 knots; 3.6 m/s)
Visibility: 10 or more miles (16+ km)
Ceiling: at least 12,000 feet AGL
Clouds: sky clear below 12,000 feet AGL
Weather: automated observation with no human augmentation;
there may or may not be significant weather present at this time

METAR text: KANK 261415Z AUTO 32006KT 10SM CLR 12/M04 A3037 RMK AO1 T01151036
Conditions at: KANK (SALIDA , CO, US) observed 1415 UTC 26 September 2021
Temperature: 11.5°C (53°F)
Dewpoint: -3.6°C (26°F) [RH = 35%]
Pressure (altimeter): 30.37 inches Hg (1028.5 mb)
Winds: from the NW (320 degrees) at 7 MPH (6 knots; 3.1 m/s)
Visibility: 10 or more miles (16+ km)
Ceiling: at least 12,000 feet AGL
Clouds: sky clear below 12,000 feet AGL
Weather: automated observation with no human augmentation;
there may or may not be significant weather present at this time